Time;durP1;ratioP1;P1;durP2;ratioP2;P2;SDS_P1;SDS_P2;PMS_P1;PMS_P2;Temp;Humidity;BMP_temperature;BMP_pressure;BME280_temperature;BME280_humidity;BME280_pressure;Samples;Min_cycle;Max_cycle;Signal;HPM_P1;HPM_P2
2022/04/27 00:02:19;;;;;;;15.35;3.70;;;8.90;99.90;;;;;;4995633;28;20057;-71
2022/04/27 00:04:44;;;;;;;9.52;3.30;;;8.90;99.90;;;;;;5009514;28;20042;-68
2022/04/27 00:07:10;;;;;;;10.15;3.95;;;8.90;99.90;;;;;;5015304;28;20049;-71
2022/04/27 00:09:36;;;;;;;11.13;3.40;;;8.90;99.90;;;;;;5014847;28;20356;-71
2022/04/27 00:12:02;;;;;;;9.88;3.40;;;8.90;99.90;;;;;;5015054;28;20050;-71
2022/04/27 00:14:29;;;;;;;6.53;3.22;;;9.00;99.90;;;;;;5015061;28;20049;-72
2022/04/27 00:16:55;;;;;;;13.27;5.00;;;8.90;99.90;;;;;;5011850;28;20096;-71
2022/04/27 00:19:21;;;;;;;10.50;4.20;;;9.00;99.90;;;;;;5015083;28;20109;-72
2022/04/27 00:21:46;;;;;;;6.47;3.22;;;8.90;99.90;;;;;;4997487;28;20179;-71
2022/04/27 00:24:12;;;;;;;9.15;3.10;;;8.90;99.90;;;;;;5015038;28;20104;-70
2022/04/27 00:26:37;;;;;;;8.73;3.83;;;8.90;99.90;;;;;;5015057;28;20353;-71
2022/04/27 00:29:03;;;;;;;7.75;2.80;;;8.90;99.90;;;;;;5015049;28;20444;-72
2022/04/27 00:31:31;;;;;;;12.32;4.03;;;8.90;99.90;;;;;;4997749;28;20135;-71
2022/04/27 00:33:57;;;;;;;7.45;2.97;;;8.90;99.90;;;;;;5014378;28;20358;-72
2022/04/27 00:36:23;;;;;;;10.95;3.75;;;8.90;99.90;;;;;;4997294;28;20034;-73
2022/04/27 00:38:48;;;;;;;5.65;3.00;;;9.00;99.90;;;;;;5014806;28;20046;-71
2022/04/27 00:41:14;;;;;;;8.15;3.78;;;8.90;99.90;;;;;;5014860;28;20049;-69
2022/04/27 00:43:41;;;;;;;5.82;3.03;;;8.80;99.90;;;;;;5017522;28;20133;-71
2022/04/27 00:46:09;;;;;;;6.32;3.15;;;8.90;99.90;;;;;;5019127;28;20045;-72
2022/04/27 00:48:36;;;;;;;7.45;3.97;;;8.80;99.90;;;;;;5018767;28;20475;-70
2022/04/27 00:51:03;;;;;;;6.18;3.00;;;8.80;99.90;;;;;;5018624;28;20050;-69
2022/04/27 00:53:29;;;;;;;3.70;2.75;;;8.80;99.90;;;;;;5018747;28;20124;-71
2022/04/27 00:55:56;;;;;;;5.78;2.70;;;8.80;99.90;;;;;;5018556;28;20490;-70
2022/04/27 00:58:24;;;;;;;6.60;3.53;;;8.70;99.90;;;;;;5018794;28;20038;-72
2022/04/27 01:00:50;;;;;;;5.47;2.95;;;8.70;99.90;;;;;;5016062;28;20068;-70
2022/04/27 01:03:16;;;;;;;7.75;3.33;;;8.70;99.90;;;;;;5017559;28;20440;-72
2022/04/27 01:05:42;;;;;;;7.70;3.47;;;8.70;99.90;;;;;;5018597;28;20112;-72
2022/04/27 01:08:08;;;;;;;8.77;3.17;;;8.80;99.90;;;;;;5018659;28;20129;-73
2022/04/27 01:10:34;;;;;;;6.07;3.22;;;8.80;99.90;;;;;;5018723;28;20340;-72
2022/04/27 01:13:00;;;;;;;5.63;2.97;;;8.80;99.90;;;;;;5018082;28;20069;-72
2022/04/27 01:15:38;;;;;;;4.75;3.00;;;8.80;99.90;;;;;;5018314;28;20046;-72
2022/04/27 01:18:04;;;;;;;4.97;3.40;;;8.80;99.90;;;;;;5018564;28;20329;-71
2022/04/27 01:20:32;;;;;;;5.57;3.10;;;8.80;99.90;;;;;;5018287;28;20050;-70
2022/04/27 01:22:57;;;;;;;9.20;3.42;;;8.80;99.90;;;;;;5000675;28;20054;-71
2022/04/27 01:25:23;;;;;;;7.70;3.30;;;8.80;99.90;;;;;;5018912;28;20052;-72
2022/04/27 01:27:48;;;;;;;7.88;3.65;;;8.80;99.90;;;;;;5018310;28;20050;-72
2022/04/27 01:30:14;;;;;;;7.97;3.28;;;8.80;99.90;;;;;;5013761;28;20489;-70
2022/04/27 01:32:39;;;;;;;5.63;3.22;;;8.80;99.90;;;;;;4998666;28;20046;-70
2022/04/27 01:35:06;;;;;;;7.07;3.25;;;8.80;99.90;;;;;;4981167;28;20058;-69
2022/04/27 01:40:15;;;;;;;5.03;3.20;;;8.80;99.90;;;;;;4998703;28;20042;-73
2022/04/27 01:42:41;;;;;;;4.80;3.00;;;8.80;99.90;;;;;;4998566;28;20042;-70
2022/04/27 01:45:07;;;;;;;4.10;2.90;;;8.70;99.90;;;;;;4980943;28;20042;-70
2022/04/27 01:47:32;;;;;;;6.90;3.20;;;8.70;99.90;;;;;;4994925;28;20050;-71
2022/04/27 01:49:58;;;;;;;5.70;3.15;;;8.70;99.90;;;;;;4980828;28;20085;-72
2022/04/27 01:55:21;;;;;;;7.78;3.10;;;8.70;99.90;;;;;;4966029;28;20047;-70
2022/04/27 01:57:48;;;;;;;5.32;2.90;;;8.60;99.90;;;;;;4998141;28;20113;-70
2022/04/27 02:00:14;;;;;;;7.32;2.95;;;8.70;99.90;;;;;;4998492;28;20125;-71
2022/04/27 02:02:40;;;;;;;5.47;2.85;;;8.60;99.90;;;;;;4981026;28;20047;-73
2022/04/27 02:05:06;;;;;;;5.65;3.25;;;8.60;99.90;;;;;;4997944;28;20050;-70
2022/04/27 02:07:31;;;;;;;4.95;3.10;;;8.60;99.90;;;;;;4980812;28;20489;-70
2022/04/27 02:09:57;;;;;;;5.80;3.00;;;8.60;99.90;;;;;;4997865;28;20049;-71
2022/04/27 02:12:22;;;;;;;4.05;2.72;;;8.60;99.90;;;;;;4997742;28;20121;-71
2022/04/27 02:14:48;;;;;;;7.32;3.45;;;8.60;99.90;;;;;;4989118;28;20060;-72
2022/04/27 02:17:14;;;;;;;6.40;3.42;;;8.60;99.90;;;;;;5017334;28;20049;-71
2022/04/27 02:19:39;;;;;;;5.50;3.03;;;8.60;99.90;;;;;;5017354;28;20049;-69
2022/04/27 02:22:05;;;;;;;4.95;3.53;;;8.60;99.90;;;;;;5017386;28;20046;-72
2022/04/27 02:24:31;;;;;;;5.47;3.10;;;8.60;99.90;;;;;;5017220;28;20105;-70
2022/04/27 02:26:56;;;;;;;3.92;3.00;;;8.60;99.90;;;;;;5016511;28;20054;-71
2022/04/27 02:29:22;;;;;;;5.68;3.40;;;8.60;99.90;;;;;;5016849;28;20491;-71
2022/04/27 02:31:49;;;;;;;5.45;3.35;;;8.60;99.90;;;;;;4999493;28;20483;-70
2022/04/27 02:34:14;;;;;;;4.32;3.22;;;8.60;99.90;;;;;;5017051;28;20056;-69
2022/04/27 02:36:40;;;;;;;4.00;3.05;;;8.60;99.90;;;;;;5016958;28;20144;-69
2022/04/27 02:39:06;;;;;;;6.65;3.08;;;8.60;99.90;;;;;;4983366;28;20061;-74
2022/04/27 02:41:31;;;;;;;7.18;3.00;;;8.70;99.90;;;;;;5016327;28;20223;-69
2022/04/27 02:43:57;;;;;;;5.60;3.35;;;8.70;99.90;;;;;;5016474;28;20054;-70
2022/04/27 02:46:22;;;;;;;5.30;3.50;;;8.70;99.90;;;;;;5016576;28;20452;-74
2022/04/27 02:54:18;;;;;;;5.63;3.92;;;8.70;99.90;;;;;;5016324;28;20451;-69
2022/04/27 02:56:44;;;;;;;6.57;4.00;;;8.70;99.90;;;;;;5016140;28;20074;-70
2022/04/27 02:59:10;;;;;;;5.85;4.00;;;8.70;99.90;;;;;;5016653;28;20057;-72
2022/04/27 03:01:35;;;;;;;7.25;3.60;;;8.70;99.90;;;;;;5016725;28;20087;-73
2022/04/27 03:04:01;;;;;;;5.93;3.40;;;8.70;99.90;;;;;;5016632;28;20414;-72
2022/04/27 03:06:27;;;;;;;6.10;3.20;;;8.70;99.90;;;;;;5015983;28;20050;-69
2022/04/27 03:08:53;;;;;;;7.45;3.47;;;8.70;99.90;;;;;;5016397;28;20458;-72
2022/04/27 03:11:18;;;;;;;4.57;3.67;;;8.70;99.90;;;;;;5003884;28;20050;-74
2022/04/27 03:13:44;;;;;;;6.32;4.00;;;8.70;99.90;;;;;;4996266;28;20061;-71
2022/04/27 03:16:09;;;;;;;5.40;3.40;;;8.70;99.90;;;;;;4996764;28;20057;-70
2022/04/27 03:18:35;;;;;;;5.18;3.20;;;8.60;99.90;;;;;;4996780;28;20034;-71
2022/04/27 03:21:01;;;;;;;6.72;4.50;;;8.70;99.90;;;;;;4996711;28;20038;-74
2022/04/27 03:23:28;;;;;;;6.55;3.70;;;8.70;99.90;;;;;;4995791;28;20076;-71
2022/04/27 03:25:54;;;;;;;7.85;3.90;;;8.70;99.90;;;;;;5006795;28;20058;-72
2022/04/27 03:28:19;;;;;;;6.90;4.07;;;8.70;99.90;;;;;;5015994;28;20046;-69
2022/04/27 03:30:45;;;;;;;8.18;3.88;;;8.60;99.90;;;;;;5016064;28;20050;-70
2022/04/27 03:33:10;;;;;;;7.10;4.05;;;8.60;99.90;;;;;;5015923;28;20070;-70
2022/04/27 03:35:36;;;;;;;5.82;3.85;;;8.60;99.90;;;;;;5016104;28;20053;-69
2022/04/27 03:38:03;;;;;;;9.23;4.22;;;8.50;99.90;;;;;;5015647;28;20053;-70
2022/04/27 03:40:29;;;;;;;6.40;3.90;;;8.50;99.90;;;;;;5015453;28;20076;-70
2022/04/27 03:42:54;;;;;;;8.52;4.57;;;8.40;99.90;;;;;;4998766;28;20041;-71
2022/04/27 03:45:20;;;;;;;6.82;4.40;;;8.40;99.90;;;;;;5015328;28;20379;-69
2022/04/27 03:47:47;;;;;;;6.57;4.40;;;8.40;99.90;;;;;;5015731;28;20081;-70
2022/04/27 03:50:13;;;;;;;12.63;4.53;;;8.50;99.90;;;;;;5015841;28;20050;-71
2022/04/27 03:52:39;;;;;;;7.32;4.60;;;8.50;99.90;;;;;;5015377;28;20050;-71
2022/04/27 03:55:04;;;;;;;8.23;4.65;;;8.50;99.90;;;;;;5015716;28;20128;-71
2022/04/27 03:57:30;;;;;;;8.25;4.63;;;8.50;99.90;;;;;;5015460;28;20041;-72
2022/04/27 03:59:56;;;;;;;6.20;4.57;;;8.50;99.90;;;;;;5015143;28;20073;-72
2022/04/27 04:02:21;;;;;;;8.73;5.03;;;8.60;99.90;;;;;;5015532;28;20153;-71
2022/04/27 04:04:47;;;;;;;8.15;5.35;;;8.60;99.90;;;;;;5015701;28;20371;-70
2022/04/27 04:07:13;;;;;;;8.18;5.32;;;8.50;99.90;;;;;;4998150;28;20440;-71
2022/04/27 04:09:42;;;;;;;8.95;5.32;;;8.50;99.90;;;;;;5015476;28;20376;-70
2022/04/27 04:12:08;;;;;;;8.95;6.03;;;8.50;99.90;;;;;;5015518;28;20095;-73
2022/04/27 04:14:35;;;;;;;10.70;5.97;;;8.50;99.90;;;;;;5015061;28;20046;-72
2022/04/27 04:17:01;;;;;;;9.82;5.97;;;8.50;99.90;;;;;;5014773;28;20050;-70
2022/04/27 04:19:26;;;;;;;12.70;6.18;;;8.50;99.90;;;;;;5015099;28;20046;-71
2022/04/27 04:21:52;;;;;;;12.18;5.82;;;8.50;99.90;;;;;;5014948;28;20199;-73
2022/04/27 04:24:17;;;;;;;14.95;5.60;;;8.50;99.90;;;;;;5015138;28;20046;-70
2022/04/27 04:29:28;;;;;;;13.03;5.90;;;8.50;99.90;;;;;;5015126;28;20049;-69
2022/04/27 04:31:54;;;;;;;10.48;5.65;;;8.50;99.90;;;;;;5015099;28;20203;-73
2022/04/27 04:34:20;;;;;;;12.55;5.88;;;8.50;99.90;;;;;;5014787;28;20404;-71
2022/04/27 04:36:45;;;;;;;13.43;5.95;;;8.60;99.90;;;;;;5015090;28;20060;-70
2022/04/27 04:39:11;;;;;;;11.63;5.97;;;8.60;99.90;;;;;;4994814;28;20053;-75
2022/04/27 04:41:36;;;;;;;13.52;6.65;;;8.60;99.90;;;;;;5014429;28;20049;-74
2022/04/27 04:44:02;;;;;;;12.38;6.35;;;8.60;99.90;;;;;;4997243;28;20058;-71
2022/04/27 04:46:28;;;;;;;9.57;5.82;;;8.70;99.90;;;;;;5014957;28;20050;-71
2022/04/27 04:48:53;;;;;;;11.07;6.40;;;8.70;99.90;;;;;;4997534;28;20045;-71
2022/04/27 04:51:19;;;;;;;8.60;5.75;;;8.70;99.90;;;;;;5014582;28;20137;-72
2022/04/27 04:53:44;;;;;;;8.15;5.00;;;8.70;99.90;;;;;;5015068;28;20054;-71
2022/04/27 04:56:10;;;;;;;10.05;5.90;;;8.70;99.90;;;;;;5013978;28;20057;-70
2022/04/27 04:58:35;;;;;;;9.50;6.05;;;8.70;99.90;;;;;;5014893;28;20049;-68
2022/04/27 05:01:03;;;;;;;11.73;6.25;;;8.80;99.90;;;;;;5014748;28;20121;-71
2022/04/27 05:03:30;;;;;;;11.23;6.75;;;8.80;99.90;;;;;;4996861;28;20058;-72
2022/04/27 05:05:55;;;;;;;10.45;6.65;;;8.80;99.90;;;;;;5014752;28;20078;-74
2022/04/27 05:08:21;;;;;;;11.43;6.75;;;8.70;99.90;;;;;;4981450;28;20088;-68
2022/04/27 05:10:47;;;;;;;10.00;5.85;;;8.70;99.90;;;;;;4997325;28;20062;-68
2022/04/27 05:13:12;;;;;;;15.27;6.32;;;8.70;99.90;;;;;;5014864;28;20056;-71
2022/04/27 05:15:39;;;;;;;13.10;6.30;;;8.70;99.90;;;;;;5014192;28;20341;-71
2022/04/27 05:18:04;;;;;;;20.52;7.15;;;8.70;99.90;;;;;;5014435;28;20364;-70
2022/04/27 05:20:30;;;;;;;12.60;7.07;;;8.70;99.90;;;;;;5011318;28;20046;-72
2022/04/27 05:22:56;;;;;;;16.13;7.00;;;8.60;99.90;;;;;;5014797;28;20042;-68
2022/04/27 05:25:21;;;;;;;17.80;7.13;;;8.60;99.90;;;;;;4997626;28;20380;-71
2022/04/27 05:27:47;;;;;;;16.70;6.18;;;8.60;99.90;;;;;;5014733;28;20050;-69
2022/04/27 05:32:56;;;;;;;13.63;5.60;;;8.70;99.90;;;;;;5001185;28;20442;-69
2022/04/27 05:35:22;;;;;;;16.70;6.05;;;8.60;99.90;;;;;;5001197;28;20132;-70
2022/04/27 05:37:48;;;;;;;16.63;5.78;;;8.70;99.90;;;;;;5018196;28;20061;-74
2022/04/27 05:40:14;;;;;;;17.05;5.38;;;8.70;99.90;;;;;;5018172;28;20483;-71
2022/04/27 05:42:40;;;;;;;14.55;5.75;;;8.70;99.90;;;;;;5000758;28;20431;-71
2022/04/27 05:45:07;;;;;;;18.17;6.72;;;8.70;99.90;;;;;;5015990;28;20113;-70
2022/04/27 05:47:34;;;;;;;13.48;6.00;;;8.70;99.90;;;;;;4999058;28;20081;-72
2022/04/27 05:49:59;;;;;;;13.27;5.40;;;8.70;99.90;;;;;;5017600;28;20038;-73
2022/04/27 05:52:25;;;;;;;17.60;6.43;;;8.70;99.90;;;;;;5018057;28;20072;-68
2022/04/27 05:54:51;;;;;;;17.83;4.90;;;8.70;99.90;;;;;;5017455;28;20128;-70
2022/04/27 05:57:17;;;;;;;20.20;6.07;;;8.70;99.90;;;;;;5000892;28;20045;-70
2022/04/27 05:59:43;;;;;;;18.00;5.55;;;8.70;99.90;;;;;;5000256;28;20096;-71
2022/04/27 06:02:09;;;;;;;18.48;5.35;;;8.60;99.90;;;;;;5012814;28;20078;-71
2022/04/27 06:04:35;;;;;;;15.60;4.65;;;8.60;99.90;;;;;;4980798;28;20056;-69
2022/04/27 06:07:01;;;;;;;22.25;6.13;;;8.60;99.90;;;;;;4997971;28;20050;-68
2022/04/27 06:09:26;;;;;;;14.27;5.65;;;8.60;99.90;;;;;;4998121;28;20105;-69
2022/04/27 06:11:52;;;;;;;17.48;5.43;;;8.70;99.90;;;;;;4998231;28;20058;-70
2022/04/27 06:14:17;;;;;;;18.83;5.68;;;8.70;99.90;;;;;;4997652;28;20052;-70
2022/04/27 06:16:43;;;;;;;17.90;5.35;;;8.70;99.90;;;;;;4999351;28;20049;-69
2022/04/27 06:19:09;;;;;;;20.10;6.30;;;8.70;99.90;;;;;;4998151;28;20049;-73
2022/04/27 06:21:35;;;;;;;19.10;6.22;;;8.70;99.90;;;;;;4997917;28;20125;-70
2022/04/27 06:24:04;;;;;;;13.23;5.00;;;8.70;99.90;;;;;;4997850;28;20121;-69
2022/04/27 06:26:33;;;;;;;16.42;5.10;;;8.70;99.90;;;;;;4997689;28;20114;-71
2022/04/27 06:28:59;;;;;;;15.13;4.53;;;8.70;99.90;;;;;;4997653;28;20389;-70
2022/04/27 06:31:24;;;;;;;15.32;4.97;;;8.70;99.90;;;;;;4997571;28;20090;-68
2022/04/27 06:33:50;;;;;;;19.02;4.60;;;8.70;99.90;;;;;;4997630;28;20093;-70
2022/04/27 06:36:15;;;;;;;18.92;5.20;;;8.70;99.90;;;;;;4997796;28;20141;-70
2022/04/27 06:38:41;;;;;;;17.63;5.15;;;8.80;99.90;;;;;;4998214;28;20034;-69
2022/04/27 06:41:06;;;;;;;14.13;4.43;;;8.70;99.90;;;;;;4996797;28;20042;-70
2022/04/27 06:43:32;;;;;;;13.60;5.07;;;8.80;99.90;;;;;;4980221;28;20054;-70
2022/04/27 06:45:59;;;;;;;14.68;4.43;;;8.80;99.90;;;;;;5012995;28;20444;-70
2022/04/27 06:48:25;;;;;;;13.57;4.50;;;8.80;99.90;;;;;;5016771;28;20046;-68
2022/04/27 06:50:50;;;;;;;11.88;4.25;;;8.90;99.90;;;;;;5016847;28;20165;-69
2022/04/27 06:53:16;;;;;;;13.50;4.55;;;8.90;99.90;;;;;;4999423;28;20062;-69
2022/04/27 06:55:42;;;;;;;12.65;4.18;;;8.90;99.90;;;;;;4999357;28;20129;-66
2022/04/27 06:58:08;;;;;;;17.63;3.90;;;8.90;99.90;;;;;;5016455;28;20041;-68
2022/04/27 07:00:33;;;;;;;15.80;4.55;;;9.00;99.90;;;;;;5014409;28;20132;-67
2022/04/27 07:02:59;;;;;;;12.27;3.80;;;9.00;99.90;;;;;;5016796;28;20056;-68
2022/04/27 07:05:26;;;;;;;13.85;3.95;;;9.00;99.90;;;;;;5016525;28;20133;-67
2022/04/27 07:07:51;;;;;;;18.40;4.95;;;9.10;99.90;;;;;;4999476;28;20041;-69
2022/04/27 07:10:19;;;;;;;15.98;3.72;;;9.10;99.90;;;;;;4999461;28;20060;-68
2022/04/27 07:12:48;;;;;;;15.73;5.82;;;9.10;99.90;;;;;;5016120;28;20412;-68
2022/04/27 07:15:14;;;;;;;15.10;4.05;;;9.20;99.90;;;;;;5001102;28;20057;-66
2022/04/27 07:17:39;;;;;;;12.82;4.50;;;9.20;99.90;;;;;;4979480;28;20042;-67
2022/04/27 07:20:06;;;;;;;13.00;3.85;;;9.30;99.90;;;;;;4996737;28;20054;-67
2022/04/27 07:22:31;;;;;;;15.63;4.28;;;9.30;99.90;;;;;;4996431;28;20046;-70
2022/04/27 07:24:57;;;;;;;10.50;3.92;;;9.40;99.90;;;;;;4993236;28;20046;-70
2022/04/27 07:27:23;;;;;;;11.93;3.80;;;9.40;99.90;;;;;;4996177;28;20073;-70
2022/04/27 07:29:49;;;;;;;16.27;4.10;;;9.50;99.90;;;;;;4996308;28;20145;-69
2022/04/27 07:32:14;;;;;;;14.82;4.03;;;9.50;99.90;;;;;;5012722;28;20052;-72
2022/04/27 07:34:40;;;;;;;12.60;4.28;;;9.50;99.90;;;;;;5021638;28;20467;-67
2022/04/27 07:37:05;;;;;;;12.25;3.78;;;9.50;99.90;;;;;;5019155;28;20507;-68
2022/04/27 07:39:32;;;;;;;16.00;4.65;;;9.60;99.90;;;;;;5010076;28;20043;-67
2022/04/27 07:41:58;;;;;;;15.95;3.83;;;9.60;99.90;;;;;;4995984;28;20038;-68
2022/04/27 07:44:23;;;;;;;12.50;3.70;;;9.60;99.90;;;;;;5007873;28;20487;-69
2022/04/27 07:46:50;;;;;;;15.05;3.80;;;9.70;99.90;;;;;;5015668;28;20438;-67
2022/04/27 07:49:16;;;;;;;17.23;4.78;;;9.70;99.90;;;;;;5011489;28;20034;-71
2022/04/27 07:51:41;;;;;;;15.85;4.05;;;9.70;99.90;;;;;;5003526;28;20141;-68
2022/04/27 07:54:07;;;;;;;10.10;3.42;;;9.80;99.90;;;;;;5011725;28;20437;-68
2022/04/27 07:56:33;;;;;;;16.75;3.50;;;9.90;99.90;;;;;;5014714;28;20038;-69
2022/04/27 07:58:59;;;;;;;14.85;3.60;;;9.90;99.90;;;;;;5006219;28;20085;-68
2022/04/27 08:01:24;;;;;;;12.02;3.28;;;10.00;99.90;;;;;;5004328;28;20081;-70
2022/04/27 08:03:50;;;;;;;13.98;3.75;;;10.10;99.90;;;;;;5001876;28;20050;-71
2022/04/27 08:06:15;;;;;;;7.75;3.40;;;10.10;99.90;;;;;;4996016;28;20116;-68
2022/04/27 08:08:41;;;;;;;12.68;3.97;;;10.20;99.90;;;;;;4995851;28;20038;-70
2022/04/27 08:11:07;;;;;;;14.77;3.80;;;10.30;99.90;;;;;;5011569;28;20042;-70
2022/04/27 08:13:34;;;;;;;18.23;4.32;;;10.30;99.90;;;;;;4998308;28;20136;-71
2022/04/27 08:15:59;;;;;;;14.75;3.88;;;10.40;99.90;;;;;;5015383;28;20082;-71
2022/04/27 08:18:25;;;;;;;13.32;4.43;;;10.40;99.90;;;;;;5014485;28;20065;-70
2022/04/27 08:23:37;;;;;;;11.52;3.85;;;10.50;99.90;;;;;;5008862;28;20050;-71
2022/04/27 08:26:05;;;;;;;14.82;3.83;;;10.60;99.90;;;;;;4997899;28;20427;-69
2022/04/27 08:28:32;;;;;;;13.32;4.85;;;10.70;99.90;;;;;;5013421;28;20081;-68
2022/04/27 08:30:59;;;;;;;13.93;3.97;;;10.70;99.90;;;;;;4993085;28;20415;-69
2022/04/27 08:33:25;;;;;;;12.23;3.65;;;10.70;99.90;;;;;;4998272;28;20117;-68
2022/04/27 08:35:51;;;;;;;17.65;3.97;;;10.80;99.90;;;;;;4995237;28;20042;-69
2022/04/27 08:38:17;;;;;;;12.98;5.75;;;10.90;99.90;;;;;;4978175;28;20061;-69
2022/04/27 08:40:45;;;;;;;13.90;3.42;;;10.90;99.90;;;;;;4995367;28;20046;-69
2022/04/27 08:43:11;;;;;;;13.20;4.35;;;10.90;99.90;;;;;;4995502;28;20049;-67
2022/04/27 08:45:41;;;;;;;12.25;4.63;;;11.00;99.90;;;;;;5014888;28;20503;-69
2022/04/27 08:48:07;;;;;;;15.27;4.03;;;11.10;99.90;;;;;;5015003;28;20042;-67
2022/04/27 08:50:33;;;;;;;13.73;3.80;;;11.10;99.90;;;;;;4997262;28;20349;-72
2022/04/27 08:52:59;;;;;;;16.13;4.47;;;11.20;99.90;;;;;;5014350;28;20077;-73
2022/04/27 08:55:27;;;;;;;13.18;3.45;;;11.30;99.90;;;;;;5010829;28;20033;-74
2022/04/27 08:57:54;;;;;;;11.30;4.20;;;11.40;99.90;;;;;;5014668;28;20054;-73
2022/04/27 09:00:21;;;;;;;11.68;3.70;;;11.40;99.90;;;;;;5010700;28;20164;-72
2022/04/27 09:02:52;;;;;;;12.50;4.20;;;11.50;99.90;;;;;;4995042;28;20053;-74
2022/04/27 09:05:21;;;;;;;12.95;3.65;;;11.50;99.90;;;;;;4998271;28;20051;-73
2022/04/27 09:07:52;;;;;;;16.63;4.20;;;11.40;99.90;;;;;;4998999;28;20046;-73
2022/04/27 09:10:21;;;;;;;17.08;4.50;;;11.10;99.90;;;;;;4999231;28;20052;-68
2022/04/27 09:12:55;;;;;;;10.85;4.15;;;11.30;99.90;;;;;;5000075;28;20042;-68
2022/04/27 09:15:22;;;;;;;;;;;11.40;99.90;;;;;;5018938;28;20042;-70
2022/04/27 09:20:57;;;;;;;11.20;4.00;;;11.30;99.90;;;;;;5018384;28;20407;-70
2022/04/27 09:23:40;;;;;;;17.17;4.90;;;11.20;99.90;;;;;;5018209;28;20060;-69
2022/04/27 09:26:22;;;;;;;9.35;4.10;;;11.00;99.90;;;;;;5017667;28;20042;-71
2022/04/27 09:28:49;;;;;;;12.88;4.10;;;11.10;99.90;;;;;;5017737;28;20355;-71
2022/04/27 09:31:32;;;;;;;7.97;3.83;;;11.10;99.90;;;;;;5000844;28;20060;-70
2022/04/27 09:34:03;;;;;;;10.18;3.55;;;11.20;99.90;;;;;;4983535;28;20151;-69
2022/04/27 09:36:29;;;;;;;10.07;3.72;;;11.20;99.90;;;;;;5017590;28;20049;-72
2022/04/27 09:38:57;;;;;;;11.43;3.95;;;11.30;99.90;;;;;;5017727;28;20065;-72
2022/04/27 09:41:44;;;;;;;13.35;3.95;;;11.20;99.90;;;;;;5018037;28;20046;-72
2022/04/27 09:44:30;;;;;;;14.13;4.25;;;11.00;99.90;;;;;;5000595;28;20050;-72
2022/04/27 09:46:56;;;;;;;13.27;4.22;;;10.90;99.90;;;;;;5000279;28;20391;-72
2022/04/27 09:49:21;;;;;;;8.98;3.30;;;11.00;99.90;;;;;;5017419;28;20188;-75
2022/04/27 09:51:49;;;;;;;9.85;3.33;;;11.10;99.90;;;;;;5017565;28;20064;-74
2022/04/27 09:54:20;;;;;;;10.48;3.45;;;11.00;99.90;;;;;;5008971;28;20042;-71
2022/04/27 09:56:51;;;;;;;13.20;4.13;;;11.10;99.90;;;;;;4997712;28;20453;-71
2022/04/27 09:59:20;;;;;;;13.77;4.05;;;11.10;99.90;;;;;;4993080;28;20061;-72
2022/04/27 10:01:51;;;;;;;12.65;4.38;;;10.80;99.90;;;;;;5011368;28;20057;-70
2022/04/27 10:04:20;;;;;;;10.43;3.33;;;10.80;99.90;;;;;;4997494;28;20444;-73
2022/04/27 10:06:47;;;;;;;13.82;3.20;;;10.70;99.90;;;;;;5012455;28;20069;-74
2022/04/27 10:09:13;;;;;;;8.18;3.40;;;10.90;99.90;;;;;;5006251;28;20045;-73
2022/04/27 10:11:41;;;;;;;17.05;4.07;;;11.00;99.90;;;;;;5017473;28;20463;-67
2022/04/27 10:14:07;;;;;;;18.48;4.00;;;11.10;99.90;;;;;;5016943;28;20054;-72
2022/04/27 10:16:35;;;;;;;12.48;3.08;;;11.30;99.90;;;;;;5015750;28;20447;-73
2022/04/27 10:19:00;;;;;;;9.30;4.07;;;11.30;99.90;;;;;;5016997;28;20375;-69
2022/04/27 10:21:55;;;;;;;11.00;4.20;;;11.30;99.90;;;;;;5017397;28;20116;-69
2022/04/27 10:24:46;;;;;;;;;;;11.30;99.90;;;;;;5017215;28;20057;-72
2022/04/27 10:27:34;;;;;;;10.88;3.47;;;11.40;99.90;;;;;;5016759;28;19926;-71
2022/04/27 10:30:03;;;;;;;10.77;3.33;;;11.20;99.90;;;;;;5014642;28;20132;-71
2022/04/27 10:32:38;;;;;;;13.18;3.22;;;11.20;99.90;;;;;;4997568;28;20050;-71
2022/04/27 10:35:37;;;;;;;7.70;3.28;;;11.30;99.90;;;;;;4997057;28;20046;-69
2022/04/27 10:38:07;;;;;;;12.48;3.92;;;11.50;99.90;;;;;;4979047;28;20054;-68
2022/04/27 10:40:40;;;;;;;9.60;3.35;;;11.40;99.90;;;;;;4997345;28;20042;-71
2022/04/27 10:43:11;;;;;;;10.32;3.35;;;11.60;99.90;;;;;;5004876;28;20085;-73
2022/04/27 10:45:47;;;;;;;12.52;4.55;;;11.60;99.90;;;;;;5016610;28;20050;-66
2022/04/27 10:48:39;;;;;;;10.88;3.40;;;11.60;99.90;;;;;;4999374;28;20045;-70
2022/04/27 10:51:05;;;;;;;10.27;3.30;;;11.80;99.90;;;;;;5016240;28;20479;-71
2022/04/27 10:53:41;;;;;;;11.85;3.30;;;11.80;99.90;;;;;;5016479;28;20105;-69
2022/04/27 10:56:24;;;;;;;10.30;3.60;;;11.70;99.90;;;;;;5016111;28;20472;-67
2022/04/27 10:58:50;;;;;;;10.60;3.70;;;11.70;99.90;;;;;;4999240;28;20045;-71
2022/04/27 11:01:22;;;;;;;11.43;3.45;;;11.60;99.90;;;;;;4998984;28;20494;-72
2022/04/27 11:04:04;;;;;;;11.13;3.60;;;11.80;99.90;;;;;;5016337;28;20053;-70
2022/04/27 11:06:57;;;;;;;16.35;4.00;;;11.80;99.90;;;;;;4999037;28;20049;-71
2022/04/27 11:09:44;;;;;;;11.63;3.47;;;12.00;99.90;;;;;;5016049;28;20096;-72
2022/04/27 11:12:11;;;;;;;9.73;3.25;;;12.00;99.90;;;;;;5011888;28;20054;-71
2022/04/27 11:14:38;;;;;;;8.82;2.97;;;12.00;99.90;;;;;;4996201;28;20050;-67
2022/04/27 11:17:05;;;;;;;9.02;3.47;;;11.80;99.90;;;;;;5000775;28;20143;-68
2022/04/27 11:19:36;;;;;;;10.65;3.35;;;11.80;99.90;;;;;;5015493;28;20045;-69
2022/04/27 11:22:11;;;;;;;10.65;3.13;;;11.80;99.90;;;;;;5015838;28;20046;-71
2022/04/27 11:24:37;;;;;;;11.50;3.53;;;11.60;99.90;;;;;;5015670;28;20486;-69
2022/04/27 11:27:03;;;;;;;9.63;2.90;;;11.70;99.90;;;;;;5015649;28;20038;-71
2022/04/27 11:29:29;;;;;;;12.88;3.47;;;11.60;99.90;;;;;;5015919;28;20124;-69
2022/04/27 11:31:55;;;;;;;8.73;3.40;;;11.50;99.90;;;;;;5008676;28;20117;-68
2022/04/27 11:34:28;;;;;;;11.70;3.75;;;11.80;99.90;;;;;;5008278;28;20364;-72
2022/04/27 11:36:54;;;;;;;12.18;4.03;;;11.70;99.90;;;;;;5015955;28;20144;-70
2022/04/27 11:39:24;;;;;;;9.65;3.75;;;11.60;99.90;;;;;;5016013;28;20049;-71
2022/04/27 11:42:00;;;;;;;8.50;3.15;;;11.80;99.90;;;;;;5015214;28;20049;-69
2022/04/27 11:44:30;;;;;;;12.20;3.60;;;11.70;99.90;;;;;;5015385;28;20483;-68
2022/04/27 11:46:57;;;;;;;6.93;2.92;;;11.80;99.90;;;;;;5015498;28;20046;-69
2022/04/27 11:49:23;;;;;;;9.75;3.45;;;11.80;99.90;;;;;;5015316;28;20367;-68
2022/04/27 11:51:49;;;;;;;10.18;3.30;;;11.90;99.90;;;;;;5015373;28;20415;-68
2022/04/27 11:54:32;;;;;;;9.05;2.90;;;12.00;99.90;;;;;;5014625;28;20041;-68
2022/04/27 11:57:03;;;;;;;10.30;3.75;;;11.90;99.90;;;;;;5015515;28;20050;-67
2022/04/27 11:59:43;;;;;;;9.30;3.47;;;11.90;99.90;;;;;;5013787;28;20452;-67
2022/04/27 12:02:10;;;;;;;11.23;3.42;;;11.80;99.90;;;;;;4981108;28;20045;-69
2022/04/27 12:04:37;;;;;;;10.57;3.50;;;11.70;99.90;;;;;;4978410;28;20046;-68
2022/04/27 12:07:13;;;;;;;8.02;3.17;;;11.80;99.90;;;;;;4995596;28;20096;-70
2022/04/27 12:09:39;;;;;;;7.53;3.22;;;11.90;99.90;;;;;;4995476;28;20116;-71
2022/04/27 12:12:13;;;;;;;9.55;3.25;;;12.00;99.90;;;;;;4996897;28;20054;-71
2022/04/27 12:14:41;;;;;;;10.38;3.67;;;12.10;99.90;;;;;;4997839;28;20352;-72
2022/04/27 12:17:09;;;;;;;12.80;3.72;;;12.20;99.90;;;;;;5014969;28;20131;-69
2022/04/27 12:19:36;;;;;;;11.73;3.67;;;12.20;99.90;;;;;;5015128;28;20345;-68
2022/04/27 12:22:15;;;;;;;12.00;3.65;;;11.80;99.90;;;;;;5014686;28;20120;-69
2022/04/27 12:24:45;;;;;;;8.82;3.10;;;12.10;99.90;;;;;;5015179;28;20052;-72
2022/04/27 12:27:21;;;;;;;10.38;2.95;;;12.20;99.90;;;;;;5014699;28;20116;-69
2022/04/27 12:29:47;;;;;;;9.45;3.05;;;12.30;99.90;;;;;;5014715;28;20042;-70
2022/04/27 12:32:13;;;;;;;14.20;4.15;;;12.50;99.90;;;;;;5015076;28;20049;-71
2022/04/27 12:37:30;;;;;;;6.95;2.80;;;12.40;99.90;;;;;;5015077;28;20049;-71
2022/04/27 12:39:56;;;;;;;9.85;3.20;;;12.50;99.90;;;;;;5011016;28;20120;-71
2022/04/27 12:42:23;;;;;;;10.75;3.92;;;12.30;99.90;;;;;;5007098;28;20540;-70
2022/04/27 12:44:48;;;;;;;8.15;3.50;;;12.50;99.90;;;;;;4993493;28;20062;-71
2022/04/27 12:47:16;;;;;;;10.88;3.05;;;12.50;99.90;;;;;;4977367;28;20054;-69
2022/04/27 12:49:50;;;;;;;7.78;3.28;;;12.50;99.90;;;;;;5014349;28;20050;-68
2022/04/27 12:52:29;;;;;;;11.77;3.42;;;12.40;99.90;;;;;;4993374;28;20053;-69
2022/04/27 12:55:09;;;;;;;7.75;3.20;;;12.60;99.90;;;;;;5011708;28;20080;-68
2022/04/27 12:57:52;;;;;;;7.50;3.17;;;12.80;99.90;;;;;;5006874;28;20189;-70
2022/04/27 13:00:20;;;;;;;11.85;2.95;;;12.50;99.90;;;;;;5004679;28;20124;-69
2022/04/27 13:02:46;;;;;;;9.73;3.63;;;12.20;99.90;;;;;;5003739;28;20427;-71
2022/04/27 13:05:14;;;;;;;14.35;4.25;;;12.10;99.90;;;;;;5005736;28;20547;-71
2022/04/27 13:07:40;;;;;;;9.55;3.05;;;12.20;99.90;;;;;;5007102;28;20105;-71
2022/04/27 13:12:51;;;;;;;;;;;12.20;99.90;;;;;;5005604;28;20049;-73
2022/04/27 13:15:18;;;;;;;9.90;3.08;;;12.20;99.90;;;;;;5004876;28;19921;-70
2022/04/27 13:17:43;;;;;;;15.30;4.03;;;12.10;99.90;;;;;;5004676;28;20455;-70
2022/04/27 13:20:09;;;;;;;8.82;3.33;;;12.20;99.90;;;;;;5006806;28;20042;-71